sensor_id;sensor_type;location;lat;lon;timestamp;pressure;altitude;pressure_sealevel;temperature;humidity
50380;BME280;37474;59.468;18.040;2022-08-01T00:01:46;101125.94;;;14.01;100.00
50380;BME280;37474;59.468;18.040;2022-08-01T00:04:18;101128.84;;;13.84;100.00
50380;BME280;37474;59.468;18.040;2022-08-01T00:06:46;101125.13;;;13.74;100.00
50380;BME280;37474;59.468;18.040;2022-08-01T00:09:16;101127.00;;;13.72;100.00
50380;BME280;37474;59.468;18.040;2022-08-01T00:11:51;101125.31;;;13.71;100.00
50380;BME280;37474;59.468;18.040;2022-08-01T00:14:27;101118.75;;;13.64;100.00
50380;BME280;37474;59.468;18.040;2022-08-01T00:16:58;101121.97;;;13.55;100.00
50380;BME280;37474;59.468;18.040;2022-08-01T00:19:34;101118.59;;;13.53;100.00
50380;BME280;37474;59.468;18.040;2022-08-01T00:22:04;101125.16;;;13.60;100.00
50380;BME280;37474;59.468;18.040;2022-08-01T00:24:32;101120.53;;;13.63;100.00
50380;BME280;37474;59.468;18.040;2022-08-01T00:27:03;101116.88;;;13.66;100.00
50380;BME280;37474;59.468;18.040;2022-08-01T00:29:33;101117.22;;;13.74;100.00
50380;BME280;37474;59.468;18.040;2022-08-01T00:32:23;101117.97;;;13.76;100.00
50380;BME280;37474;59.468;18.040;2022-08-01T00:34:53;101112.50;;;13.79;100.00
50380;BME280;37474;59.468;18.040;2022-08-01T00:37:22;101120.59;;;13.76;100.00
50380;BME280;37474;59.468;18.040;2022-08-01T00:39:52;101108.06;;;13.80;100.00
50380;BME280;37474;59.468;18.040;2022-08-01T00:42:23;101112.09;;;13.85;100.00
50380;BME280;37474;59.468;18.040;2022-08-01T00:44:51;101104.94;;;13.87;100.00
50380;BME280;37474;59.468;18.040;2022-08-01T00:47:21;101101.38;;;13.88;100.00
50380;BME280;37474;59.468;18.040;2022-08-01T00:49:51;101103.06;;;13.89;100.00
50380;BME280;37474;59.468;18.040;2022-08-01T00:52:19;101100.41;;;13.89;100.00
50380;BME280;37474;59.468;18.040;2022-08-01T00:54:50;101108.41;;;13.88;100.00
50380;BME280;37474;59.468;18.040;2022-08-01T00:57:23;101097.03;;;13.87;100.00
50380;BME280;37474;59.468;18.040;2022-08-01T01:00:14;101110.41;;;13.84;100.00
50380;BME280;37474;59.468;18.040;2022-08-01T01:02:52;101103.84;;;13.77;100.00
50380;BME280;37474;59.468;18.040;2022-08-01T01:05:22;101100.88;;;13.69;100.00
50380;BME280;37474;59.468;18.040;2022-08-01T01:07:56;101093.25;;;13.52;100.00
50380;BME280;37474;59.468;18.040;2022-08-01T01:10:33;101098.38;;;13.40;100.00
50380;BME280;37474;59.468;18.040;2022-08-01T01:13:09;101100.28;;;13.24;100.00
50380;BME280;37474;59.468;18.040;2022-08-01T01:15:43;101094.84;;;13.27;100.00
50380;BME280;37474;59.468;18.040;2022-08-01T01:18:20;101104.81;;;13.22;100.00
50380;BME280;37474;59.468;18.040;2022-08-01T01:21:00;101087.63;;;13.17;100.00
50380;BME280;37474;59.468;18.040;2022-08-01T01:23:42;101087.69;;;13.15;100.00
50380;BME280;37474;59.468;18.040;2022-08-01T01:26:23;101090.50;;;13.12;100.00
50380;BME280;37474;59.468;18.040;2022-08-01T01:29:08;101091.94;;;13.03;100.00
50380;BME280;37474;59.468;18.040;2022-08-01T01:31:44;101085.66;;;12.92;100.00
50380;BME280;37474;59.468;18.040;2022-08-01T01:34:18;101091.00;;;12.90;100.00
50380;BME280;37474;59.468;18.040;2022-08-01T01:36:50;101083.97;;;12.91;100.00
50380;BME280;37474;59.468;18.040;2022-08-01T01:39:22;101080.47;;;12.90;100.00
50380;BME280;37474;59.468;18.040;2022-08-01T01:41:55;101076.91;;;12.91;100.00
50380;BME280;37474;59.468;18.040;2022-08-01T01:44:27;101080.56;;;13.03;100.00
50380;BME280;37474;59.468;18.040;2022-08-01T01:46:58;101071.53;;;13.07;100.00
50380;BME280;37474;59.468;18.040;2022-08-01T01:49:31;101069.28;;;13.15;100.00
50380;BME280;37474;59.468;18.040;2022-08-01T01:52:03;101065.72;;;13.16;100.00
50380;BME280;37474;59.468;18.040;2022-08-01T01:54:37;101067.69;;;13.13;100.00
50380;BME280;37474;59.468;18.040;2022-08-01T01:57:09;101064.41;;;13.09;100.00
50380;BME280;37474;59.468;18.040;2022-08-01T01:59:44;101059.59;;;13.16;100.00
50380;BME280;37474;59.468;18.040;2022-08-01T02:02:16;101064.00;;;13.15;100.00
50380;BME280;37474;59.468;18.040;2022-08-01T02:04:46;101067.22;;;13.20;100.00
50380;BME280;37474;59.468;18.040;2022-08-01T02:07:20;101058.28;;;13.23;100.00
50380;BME280;37474;59.468;18.040;2022-08-01T02:09:52;101059.13;;;13.23;100.00
50380;BME280;37474;59.468;18.040;2022-08-01T02:12:24;101062.53;;;13.25;100.00
50380;BME280;37474;59.468;18.040;2022-08-01T02:14:54;101072.19;;;13.25;100.00
50380;BME280;37474;59.468;18.040;2022-08-01T02:17:26;101059.03;;;13.25;100.00
50380;BME280;37474;59.468;18.040;2022-08-01T02:19:55;101051.06;;;13.26;100.00
50380;BME280;37474;59.468;18.040;2022-08-01T02:22:30;101058.28;;;13.23;100.00
50380;BME280;37474;59.468;18.040;2022-08-01T02:25:05;101044.69;;;13.16;100.00
50380;BME280;37474;59.468;18.040;2022-08-01T02:27:40;101053.69;;;13.12;100.00
50380;BME280;37474;59.468;18.040;2022-08-01T02:30:14;101053.97;;;13.22;100.00
50380;BME280;37474;59.468;18.040;2022-08-01T02:32:48;101046.19;;;13.20;100.00
50380;BME280;37474;59.468;18.040;2022-08-01T02:35:27;101046.28;;;13.19;100.00
50380;BME280;37474;59.468;18.040;2022-08-01T02:37:58;101050.59;;;13.20;100.00
50380;BME280;37474;59.468;18.040;2022-08-01T02:40:32;101047.88;;;13.21;100.00
50380;BME280;37474;59.468;18.040;2022-08-01T02:43:03;101048.53;;;13.25;100.00
50380;BME280;37474;59.468;18.040;2022-08-01T02:45:40;101038.84;;;13.25;100.00
50380;BME280;37474;59.468;18.040;2022-08-01T02:48:14;101041.28;;;13.28;100.00
50380;BME280;37474;59.468;18.040;2022-08-01T02:50:47;101043.91;;;13.28;100.00
50380;BME280;37474;59.468;18.040;2022-08-01T02:53:19;101038.06;;;13.37;100.00
50380;BME280;37474;59.468;18.040;2022-08-01T02:56:11;101038.00;;;13.52;100.00
50380;BME280;37474;59.468;18.040;2022-08-01T02:58:44;101034.09;;;13.57;100.00
50380;BME280;37474;59.468;18.040;2022-08-01T03:01:17;101032.53;;;13.67;100.00
50380;BME280;37474;59.468;18.040;2022-08-01T03:03:49;101034.47;;;13.78;100.00
50380;BME280;37474;59.468;18.040;2022-08-01T03:06:19;101029.97;;;13.93;100.00
50380;BME280;37474;59.468;18.040;2022-08-01T03:08:48;101035.03;;;14.08;100.00
50380;BME280;37474;59.468;18.040;2022-08-01T03:11:19;101029.88;;;14.20;100.00
50380;BME280;37474;59.468;18.040;2022-08-01T03:13:53;101023.25;;;14.27;100.00
50380;BME280;37474;59.468;18.040;2022-08-01T03:16:23;101026.81;;;14.38;100.00
50380;BME280;37474;59.468;18.040;2022-08-01T03:19:00;101028.00;;;14.47;100.00
50380;BME280;37474;59.468;18.040;2022-08-01T03:21:30;101032.28;;;14.61;100.00
50380;BME280;37474;59.468;18.040;2022-08-01T03:24:01;101033.88;;;14.63;100.00
50380;BME280;37474;59.468;18.040;2022-08-01T03:26:34;101032.06;;;14.77;100.00
50380;BME280;37474;59.468;18.040;2022-08-01T03:29:10;101028.31;;;14.92;100.00
50380;BME280;37474;59.468;18.040;2022-08-01T03:31:44;101027.56;;;15.02;100.00
50380;BME280;37474;59.468;18.040;2022-08-01T03:34:17;101022.25;;;15.15;100.00
50380;BME280;37474;59.468;18.040;2022-08-01T03:36:49;101022.41;;;15.25;100.00
50380;BME280;37474;59.468;18.040;2022-08-01T03:39:28;101025.56;;;15.30;100.00
50380;BME280;37474;59.468;18.040;2022-08-01T03:42:01;101023.81;;;15.42;100.00
50380;BME280;37474;59.468;18.040;2022-08-01T03:44:38;101016.41;;;15.47;100.00
50380;BME280;37474;59.468;18.040;2022-08-01T03:47:09;101022.31;;;15.50;100.00
50380;BME280;37474;59.468;18.040;2022-08-01T03:49:44;101017.25;;;15.47;100.00
50380;BME280;37474;59.468;18.040;2022-08-01T03:52:14;101016.41;;;15.47;100.00
50380;BME280;37474;59.468;18.040;2022-08-01T03:54:46;101020.00;;;15.46;100.00
50380;BME280;37474;59.468;18.040;2022-08-01T03:57:15;101024.78;;;15.41;100.00
50380;BME280;37474;59.468;18.040;2022-08-01T04:00:05;101018.38;;;15.56;100.00
50380;BME280;37474;59.468;18.040;2022-08-01T04:02:38;101018.47;;;15.54;100.00
50380;BME280;37474;59.468;18.040;2022-08-01T04:05:09;101017.22;;;15.60;100.00
50380;BME280;37474;59.468;18.040;2022-08-01T04:07:37;101021.84;;;15.56;100.00
50380;BME280;37474;59.468;18.040;2022-08-01T04:10:07;101012.44;;;15.76;100.00
50380;BME280;37474;59.468;18.040;2022-08-01T04:12:37;101009.81;;;15.87;100.00
50380;BME280;37474;59.468;18.040;2022-08-01T04:15:07;101011.19;;;16.04;100.00
50380;BME280;37474;59.468;18.040;2022-08-01T04:17:38;101011.56;;;16.11;100.00
50380;BME280;37474;59.468;18.040;2022-08-01T04:20:07;101015.28;;;16.19;100.00
50380;BME280;37474;59.468;18.040;2022-08-01T04:22:39;101011.13;;;16.39;100.00
50380;BME280;37474;59.468;18.040;2022-08-01T04:25:12;101004.88;;;16.51;100.00
50380;BME280;37474;59.468;18.040;2022-08-01T04:27:47;101009.91;;;16.54;100.00
50380;BME280;37474;59.468;18.040;2022-08-01T04:30:22;101007.88;;;16.58;100.00
50380;BME280;37474;59.468;18.040;2022-08-01T04:32:55;101009.91;;;16.54;100.00
50380;BME280;37474;59.468;18.040;2022-08-01T04:35:29;100998.72;;;16.62;100.00
50380;BME280;37474;59.468;18.040;2022-08-01T04:38:19;101001.72;;;16.80;100.00
50380;BME280;37474;59.468;18.040;2022-08-01T04:40:53;101003.16;;;16.84;100.00
50380;BME280;37474;59.468;18.040;2022-08-01T04:43:22;101006.19;;;17.22;100.00
50380;BME280;37474;59.468;18.040;2022-08-01T04:45:53;101007.31;;;17.52;100.00
50380;BME280;37474;59.468;18.040;2022-08-01T04:48:26;100995.59;;;17.66;100.00
50380;BME280;37474;59.468;18.040;2022-08-01T04:50:57;100994.22;;;17.92;100.00
50380;BME280;37474;59.468;18.040;2022-08-01T04:53:27;100989.28;;;18.08;100.00
50380;BME280;37474;59.468;18.040;2022-08-01T04:55:55;100989.25;;;18.29;100.00
50380;BME280;37474;59.468;18.040;2022-08-01T04:58:25;100989.22;;;18.50;100.00
50380;BME280;37474;59.468;18.040;2022-08-01T05:00:57;100987.34;;;18.81;98.58
50380;BME280;37474;59.468;18.040;2022-08-01T05:03:26;100990.47;;;19.05;92.53
50380;BME280;37474;59.468;18.040;2022-08-01T05:05:54;100987.41;;;19.19;91.31
50380;BME280;37474;59.468;18.040;2022-08-01T05:08:26;100989.81;;;19.22;91.62
50380;BME280;37474;59.468;18.040;2022-08-01T05:10:54;100989.94;;;19.31;90.01
50380;BME280;37474;59.468;18.040;2022-08-01T05:13:21;100991.06;;;19.18;91.09
50380;BME280;37474;59.468;18.040;2022-08-01T05:15:53;100986.59;;;19.19;90.97
50380;BME280;37474;59.468;18.040;2022-08-01T05:18:21;100983.22;;;19.26;88.10
50380;BME280;37474;59.468;18.040;2022-08-01T05:20:57;100975.97;;;19.28;90.53
50380;BME280;37474;59.468;18.040;2022-08-01T05:23:27;100978.38;;;19.61;88.47
50380;BME280;37474;59.468;18.040;2022-08-01T05:26:09;100974.38;;;19.93;86.85
50380;BME280;37474;59.468;18.040;2022-08-01T05:28:40;100975.09;;;20.33;82.57
50380;BME280;37474;59.468;18.040;2022-08-01T05:31:08;100977.31;;;20.37;80.62
50380;BME280;37474;59.468;18.040;2022-08-01T05:33:38;100973.41;;;20.32;80.64
50380;BME280;37474;59.468;18.040;2022-08-01T05:36:09;100981.44;;;20.22;82.16
50380;BME280;37474;59.468;18.040;2022-08-01T05:38:37;100967.84;;;20.25;81.86
50380;BME280;37474;59.468;18.040;2022-08-01T05:41:07;100966.66;;;20.37;80.36
50380;BME280;37474;59.468;18.040;2022-08-01T05:43:37;100965.97;;;20.35;79.78
50380;BME280;37474;59.468;18.040;2022-08-01T05:46:05;100962.72;;;20.51;80.14
50380;BME280;37474;59.468;18.040;2022-08-01T05:48:35;100952.56;;;20.82;78.18
50380;BME280;37474;59.468;18.040;2022-08-01T05:51:05;100958.91;;;20.99;76.74
50380;BME280;37474;59.468;18.040;2022-08-01T05:53:34;100954.72;;;20.96;76.52
50380;BME280;37474;59.468;18.040;2022-08-01T05:56:04;100956.44;;;21.33;76.87
50380;BME280;37474;59.468;18.040;2022-08-01T05:58:33;100955.75;;;21.48;73.00
50380;BME280;37474;59.468;18.040;2022-08-01T06:01:02;100958.31;;;21.58;71.91
50380;BME280;37474;59.468;18.040;2022-08-01T06:03:32;100957.03;;;21.44;71.07
50380;BME280;37474;59.468;18.040;2022-08-01T06:06:02;100955.81;;;21.39;70.54
50380;BME280;37474;59.468;18.040;2022-08-01T06:08:30;100952.03;;;21.24;69.88
50380;BME280;37474;59.468;18.040;2022-08-01T06:11:01;100959.28;;;21.04;72.63
50380;BME280;37474;59.468;18.040;2022-08-01T06:13:31;100957.84;;;21.09;71.26
50380;BME280;37474;59.468;18.040;2022-08-01T06:16:16;100958.19;;;21.24;69.96
50380;BME280;37474;59.468;18.040;2022-08-01T06:18:45;100954.00;;;21.39;68.37
50380;BME280;37474;59.468;18.040;2022-08-01T06:21:13;100942.38;;;21.66;68.96
50380;BME280;37474;59.468;18.040;2022-08-01T06:23:43;100946.75;;;21.49;67.62
50380;BME280;37474;59.468;18.040;2022-08-01T06:26:13;100943.22;;;21.67;67.68
50380;BME280;37474;59.468;18.040;2022-08-01T06:28:40;100940.50;;;21.59;66.07
50380;BME280;37474;59.468;18.040;2022-08-01T06:31:10;100936.69;;;21.61;67.20
50380;BME280;37474;59.468;18.040;2022-08-01T06:33:41;100947.78;;;21.74;65.55
50380;BME280;37474;59.468;18.040;2022-08-01T06:36:11;100935.88;;;21.95;66.54
50380;BME280;37474;59.468;18.040;2022-08-01T06:38:39;100939.91;;;21.99;64.15
50380;BME280;37474;59.468;18.040;2022-08-01T06:41:07;100934.41;;;22.00;64.36
50380;BME280;37474;59.468;18.040;2022-08-01T06:43:37;100937.19;;;22.50;61.47
50380;BME280;37474;59.468;18.040;2022-08-01T06:46:05;100927.97;;;22.87;59.94
50380;BME280;37474;59.468;18.040;2022-08-01T06:48:33;100941.59;;;22.68;60.19
50380;BME280;37474;59.468;18.040;2022-08-01T06:51:02;100937.88;;;22.61;60.95
50380;BME280;37474;59.468;18.040;2022-08-01T06:53:37;100946.50;;;22.46;61.29
50380;BME280;37474;59.468;18.040;2022-08-01T06:56:07;100947.28;;;22.31;60.96
50380;BME280;37474;59.468;18.040;2022-08-01T06:58:37;100945.16;;;22.08;62.25
50380;BME280;37474;59.468;18.040;2022-08-01T07:01:07;100950.59;;;22.25;61.87
50380;BME280;37474;59.468;18.040;2022-08-01T07:03:36;100949.44;;;22.27;61.83
50380;BME280;37474;59.468;18.040;2022-08-01T07:06:19;100954.59;;;22.29;62.01
50380;BME280;37474;59.468;18.040;2022-08-01T07:08:47;100947.78;;;22.34;60.07
50380;BME280;37474;59.468;18.040;2022-08-01T07:11:15;100951.91;;;22.21;59.33
50380;BME280;37474;59.468;18.040;2022-08-01T07:13:47;100950.25;;;22.28;58.87
50380;BME280;37474;59.468;18.040;2022-08-01T07:16:16;100946.69;;;22.11;55.50
50380;BME280;37474;59.468;18.040;2022-08-01T07:18:44;100944.38;;;22.16;56.29
50380;BME280;37474;59.468;18.040;2022-08-01T07:21:12;100944.09;;;22.27;54.91
50380;BME280;37474;59.468;18.040;2022-08-01T07:24:00;100946.34;;;22.14;53.32
50380;BME280;37474;59.468;18.040;2022-08-01T07:26:38;100944.06;;;22.19;53.28
50380;BME280;37474;59.468;18.040;2022-08-01T07:29:19;100935.59;;;22.32;53.69
50380;BME280;37474;59.468;18.040;2022-08-01T07:31:47;100935.16;;;22.44;52.97
50380;BME280;37474;59.468;18.040;2022-08-01T07:34:17;100930.56;;;22.71;53.55
50380;BME280;37474;59.468;18.040;2022-08-01T07:36:45;100932.59;;;22.77;51.94
50380;BME280;37474;59.468;18.040;2022-08-01T07:39:15;100931.00;;;23.08;51.75
50380;BME280;37474;59.468;18.040;2022-08-01T07:41:45;100929.66;;;23.21;51.40
50380;BME280;37474;59.468;18.040;2022-08-01T07:44:36;100931.16;;;23.23;51.03
50380;BME280;37474;59.468;18.040;2022-08-01T07:47:06;100927.81;;;23.37;50.51
50380;BME280;37474;59.468;18.040;2022-08-01T07:49:34;100920.66;;;23.62;50.77
50380;BME280;37474;59.468;18.040;2022-08-01T07:52:08;100925.09;;;23.94;50.25
50380;BME280;37474;59.468;18.040;2022-08-01T07:54:38;100927.69;;;24.27;48.84
50380;BME280;37474;59.468;18.040;2022-08-01T07:57:07;100930.00;;;24.38;48.47
50380;BME280;37474;59.468;18.040;2022-08-01T07:59:37;100923.81;;;24.37;47.35
50380;BME280;37474;59.468;18.040;2022-08-01T08:02:07;100918.94;;;24.41;46.32
50380;BME280;37474;59.468;18.040;2022-08-01T08:04:36;100913.63;;;24.25;46.93
50380;BME280;37474;59.468;18.040;2022-08-01T08:07:04;100917.31;;;24.63;46.56
50380;BME280;37474;59.468;18.040;2022-08-01T08:09:35;100915.44;;;24.94;45.78
50380;BME280;37474;59.468;18.040;2022-08-01T08:12:04;100913.88;;;24.77;45.12
50380;BME280;37474;59.468;18.040;2022-08-01T08:14:36;100911.75;;;24.72;45.88
50380;BME280;37474;59.468;18.040;2022-08-01T08:17:05;100916.78;;;24.36;46.10
50380;BME280;37474;59.468;18.040;2022-08-01T08:19:33;100911.00;;;24.08;45.58
50380;BME280;37474;59.468;18.040;2022-08-01T08:22:05;100916.72;;;23.97;47.05
50380;BME280;37474;59.468;18.040;2022-08-01T08:24:34;100914.34;;;24.10;46.88
50380;BME280;37474;59.468;18.040;2022-08-01T08:27:11;100912.53;;;24.03;46.81
50380;BME280;37474;59.468;18.040;2022-08-01T08:29:40;100915.28;;;23.87;47.67
50380;BME280;37474;59.468;18.040;2022-08-01T08:32:08;100917.69;;;24.04;47.54
50380;BME280;37474;59.468;18.040;2022-08-01T08:34:37;100918.97;;;24.25;47.63
50380;BME280;37474;59.468;18.040;2022-08-01T08:37:06;100913.50;;;24.57;47.40
50380;BME280;37474;59.468;18.040;2022-08-01T08:39:35;100918.31;;;24.93;45.69
50380;BME280;37474;59.468;18.040;2022-08-01T08:42:08;100915.91;;;25.43;46.39
50380;BME280;37474;59.468;18.040;2022-08-01T08:44:36;100911.19;;;25.68;44.80
50380;BME280;37474;59.468;18.040;2022-08-01T08:47:12;100902.88;;;25.55;43.76
50380;BME280;37474;59.468;18.040;2022-08-01T08:49:46;100899.41;;;25.32;44.60
50380;BME280;37474;59.468;18.040;2022-08-01T08:52:18;100907.16;;;25.27;45.61
50380;BME280;37474;59.468;18.040;2022-08-01T08:54:50;100903.19;;;25.23;44.34
50380;BME280;37474;59.468;18.040;2022-08-01T08:57:20;100895.97;;;25.00;45.24
50380;BME280;37474;59.468;18.040;2022-08-01T08:59:49;100893.31;;;25.38;46.05
50380;BME280;37474;59.468;18.040;2022-08-01T09:02:20;100898.25;;;25.49;45.38
50380;BME280;37474;59.468;18.040;2022-08-01T09:04:50;100897.06;;;25.52;44.42
50380;BME280;37474;59.468;18.040;2022-08-01T09:07:18;100888.63;;;25.40;44.40
50380;BME280;37474;59.468;18.040;2022-08-01T09:09:49;100892.41;;;25.46;45.02
50380;BME280;37474;59.468;18.040;2022-08-01T09:12:18;100885.19;;;25.46;45.27
50380;BME280;37474;59.468;18.040;2022-08-01T09:14:47;100889.72;;;25.68;43.42
50380;BME280;37474;59.468;18.040;2022-08-01T09:17:17;100887.97;;;25.90;44.05
50380;BME280;37474;59.468;18.040;2022-08-01T09:19:48;100896.16;;;26.18;42.86
50380;BME280;37474;59.468;18.040;2022-08-01T09:22:21;100882.38;;;26.72;41.97
50380;BME280;37474;59.468;18.040;2022-08-01T09:25:03;100880.06;;;27.12;41.05
50380;BME280;37474;59.468;18.040;2022-08-01T09:27:33;100893.69;;;27.03;40.58
50380;BME280;37474;59.468;18.040;2022-08-01T09:30:10;100887.59;;;26.59;41.21
50380;BME280;37474;59.468;18.040;2022-08-01T09:32:55;100883.63;;;26.55;40.29
50380;BME280;37474;59.468;18.040;2022-08-01T09:35:27;100885.81;;;25.71;41.78
50380;BME280;37474;59.468;18.040;2022-08-01T09:38:14;100884.34;;;25.83;42.57
50380;BME280;37474;59.468;18.040;2022-08-01T09:40:48;100880.53;;;26.07;42.65
50380;BME280;37474;59.468;18.040;2022-08-01T09:43:16;100885.25;;;26.34;40.49
50380;BME280;37474;59.468;18.040;2022-08-01T09:45:44;100875.44;;;26.63;40.92
50380;BME280;37474;59.468;18.040;2022-08-01T09:48:21;100880.06;;;26.69;40.01
50380;BME280;37474;59.468;18.040;2022-08-01T09:50:57;100878.44;;;26.53;40.22
50380;BME280;37474;59.468;18.040;2022-08-01T09:53:40;100879.16;;;26.62;41.07
50380;BME280;37474;59.468;18.040;2022-08-01T09:56:17;100874.16;;;26.59;41.11
50380;BME280;37474;59.468;18.040;2022-08-01T09:58:50;100868.19;;;26.27;41.12
50380;BME280;37474;59.468;18.040;2022-08-01T10:01:25;100866.97;;;26.45;41.17
50380;BME280;37474;59.468;18.040;2022-08-01T10:04:08;100868.47;;;26.32;41.07
50380;BME280;37474;59.468;18.040;2022-08-01T10:06:42;100872.09;;;26.10;41.60
50380;BME280;37474;59.468;18.040;2022-08-01T10:09:13;100861.59;;;25.79;41.71
50380;BME280;37474;59.468;18.040;2022-08-01T10:11:42;100853.16;;;25.97;41.16
50380;BME280;37474;59.468;18.040;2022-08-01T10:14:11;100858.06;;;25.93;41.15
50380;BME280;37474;59.468;18.040;2022-08-01T10:16:44;100862.06;;;25.83;43.07
50380;BME280;37474;59.468;18.040;2022-08-01T10:19:30;100858.25;;;25.92;42.80
50380;BME280;37474;59.468;18.040;2022-08-01T10:22:03;100845.78;;;26.35;42.22
50380;BME280;37474;59.468;18.040;2022-08-01T10:24:36;100846.16;;;26.32;40.11
50380;BME280;37474;59.468;18.040;2022-08-01T10:27:07;100844.97;;;25.46;41.91
50380;BME280;37474;59.468;18.040;2022-08-01T10:29:43;100848.16;;;25.64;43.13
50380;BME280;37474;59.468;18.040;2022-08-01T10:32:35;100843.69;;;25.57;42.62
50380;BME280;37474;59.468;18.040;2022-08-01T10:35:07;100845.44;;;25.50;43.48
50380;BME280;37474;59.468;18.040;2022-08-01T10:37:46;100842.47;;;25.45;43.58
50380;BME280;37474;59.468;18.040;2022-08-01T10:40:19;100846.06;;;25.37;42.59
50380;BME280;37474;59.468;18.040;2022-08-01T10:42:57;100845.50;;;25.27;42.43
50380;BME280;37474;59.468;18.040;2022-08-01T10:45:27;100843.81;;;25.26;43.37
50380;BME280;37474;59.468;18.040;2022-08-01T10:48:02;100847.31;;;25.64;41.98
50380;BME280;37474;59.468;18.040;2022-08-01T10:50:34;100846.13;;;25.96;40.25
50380;BME280;37474;59.468;18.040;2022-08-01T10:53:11;100848.91;;;25.88;39.70
50380;BME280;37474;59.468;18.040;2022-08-01T10:55:59;100845.53;;;26.15;39.42
50380;BME280;37474;59.468;18.040;2022-08-01T10:58:30;100846.31;;;26.45;38.53
50380;BME280;37474;59.468;18.040;2022-08-01T11:04:05;100849.19;;;26.29;39.05
50380;BME280;37474;59.468;18.040;2022-08-01T11:06:48;100833.03;;;26.80;38.46
50380;BME280;37474;59.468;18.040;2022-08-01T11:09:40;100829.88;;;26.19;40.13
50380;BME280;37474;59.468;18.040;2022-08-01T11:12:18;100833.88;;;26.80;38.91
50380;BME280;37474;59.468;18.040;2022-08-01T11:18:02;100837.84;;;26.63;38.59
50380;BME280;37474;59.468;18.040;2022-08-01T11:20:34;100826.56;;;26.95;38.22
50380;BME280;37474;59.468;18.040;2022-08-01T11:23:18;100830.53;;;27.83;37.92
50380;BME280;37474;59.468;18.040;2022-08-01T11:26:11;100831.66;;;28.09;36.86
50380;BME280;37474;59.468;18.040;2022-08-01T11:28:45;100820.50;;;27.71;35.37
50380;BME280;37474;59.468;18.040;2022-08-01T11:31:33;100823.81;;;28.20;35.63
50380;BME280;37474;59.468;18.040;2022-08-01T11:34:04;100815.41;;;27.82;37.19
50380;BME280;37474;59.468;18.040;2022-08-01T11:36:32;100819.19;;;27.32;38.99
50380;BME280;37474;59.468;18.040;2022-08-01T11:39:22;100816.50;;;27.32;39.23
50380;BME280;37474;59.468;18.040;2022-08-01T11:41:52;100816.44;;;27.53;38.11
50380;BME280;37474;59.468;18.040;2022-08-01T11:44:23;100820.69;;;26.85;39.75
50380;BME280;37474;59.468;18.040;2022-08-01T11:47:00;100827.47;;;26.60;40.68
50380;BME280;37474;59.468;18.040;2022-08-01T11:49:47;100835.22;;;26.69;41.03
50380;BME280;37474;59.468;18.040;2022-08-01T11:52:25;100828.00;;;26.34;41.86
50380;BME280;37474;59.468;18.040;2022-08-01T11:54:56;100834.66;;;26.38;41.70
50380;BME280;37474;59.468;18.040;2022-08-01T11:57:30;100831.03;;;25.95;42.42
50380;BME280;37474;59.468;18.040;2022-08-01T12:00:09;100830.13;;;25.88;43.21
50380;BME280;37474;59.468;18.040;2022-08-01T12:02:44;100834.66;;;25.72;42.41
50380;BME280;37474;59.468;18.040;2022-08-01T12:05:13;100828.97;;;25.38;43.17
50380;BME280;37474;59.468;18.040;2022-08-01T12:07:50;100834.94;;;25.25;44.00
50380;BME280;37474;59.468;18.040;2022-08-01T12:10:19;100836.19;;;25.00;44.51
50380;BME280;37474;59.468;18.040;2022-08-01T12:12:53;100834.69;;;24.74;44.98
50380;BME280;37474;59.468;18.040;2022-08-01T12:15:24;100833.03;;;24.51;45.76
50380;BME280;37474;59.468;18.040;2022-08-01T12:17:59;100843.47;;;24.37;45.38
50380;BME280;37474;59.468;18.040;2022-08-01T12:20:32;100837.16;;;24.30;46.45
50380;BME280;37474;59.468;18.040;2022-08-01T12:23:06;100833.09;;;24.65;46.44
50380;BME280;37474;59.468;18.040;2022-08-01T12:25:35;100833.16;;;24.80;46.67
50380;BME280;37474;59.468;18.040;2022-08-01T12:28:10;100834.19;;;25.17;43.90
50380;BME280;37474;59.468;18.040;2022-08-01T12:30:41;100844.56;;;25.20;42.36
50380;BME280;37474;59.468;18.040;2022-08-01T12:33:17;100836.47;;;25.42;42.21
50380;BME280;37474;59.468;18.040;2022-08-01T12:35:47;100833.97;;;25.56;42.35
50380;BME280;37474;59.468;18.040;2022-08-01T12:38:20;100835.59;;;25.65;42.85
50380;BME280;37474;59.468;18.040;2022-08-01T12:40:51;100819.78;;;25.70;42.41
50380;BME280;37474;59.468;18.040;2022-08-01T12:43:23;100820.59;;;25.85;41.17
50380;BME280;37474;59.468;18.040;2022-08-01T12:45:58;100824.66;;;25.66;43.45
50380;BME280;37474;59.468;18.040;2022-08-01T12:48:30;100825.28;;;25.39;40.94
50380;BME280;37474;59.468;18.040;2022-08-01T12:51:02;100819.66;;;25.11;41.55
50380;BME280;37474;59.468;18.040;2022-08-01T12:53:33;100821.03;;;25.07;41.94
50380;BME280;37474;59.468;18.040;2022-08-01T12:56:10;100826.59;;;24.83;42.13
50380;BME280;37474;59.468;18.040;2022-08-01T12:58:42;100819.94;;;24.78;42.96
50380;BME280;37474;59.468;18.040;2022-08-01T13:01:11;100827.75;;;24.34;42.99
50380;BME280;37474;59.468;18.040;2022-08-01T13:03:40;100813.88;;;24.62;43.96
50380;BME280;37474;59.468;18.040;2022-08-01T13:06:13;100813.34;;;24.66;43.23
50380;BME280;37474;59.468;18.040;2022-08-01T13:08:44;100811.59;;;24.96;42.73
50380;BME280;37474;59.468;18.040;2022-08-01T13:11:17;100811.81;;;25.09;42.48